Copano Village, Texas
Current Conditions -  °F | °C
As of 5:53 PM on Friday 31 Oct 2014 (Local Time) from KRKP Reporting Station
Clear Clear  
Wind Chill: 79°   Ceiling: Unl
Heat Index: 79°   Visibility: 10mi
Dew Point: 39°   Wind: 8mph
Humidity: 24%   Direction: 10°N
Pressure: 30.15"   Gusts: NA
Location:  28.2335°N, 96.9422°W
Report Text: KRKP 312253Z AUTO 01007KT 10SM CLR 26/04 A3015 RMK AO2 SLP210 T02610039
Loading
Personal Weather Stations






























Interactive Weather Map
Tropical Storm Tracking
New forecast layout! Learn more

10-Day Weather Forecast

Advertisements
Track Severe Weather on mobile